createdAt,value
2023-03-28T00:01:12.081Z,98.17
2023-03-28T00:03:40.892Z,98.16
2023-03-28T00:06:12.457Z,97.95
2023-03-28T00:08:41.065Z,98.07
2023-03-28T00:11:24.798Z,98.28
2023-03-28T00:14:01.238Z,98.28
2023-03-28T00:16:37.238Z,98.35
2023-03-28T00:19:12.045Z,98.25
2023-03-28T00:21:47.261Z,98.50
2023-03-28T00:24:21.582Z,98.67
2023-03-28T00:26:54.848Z,98.69
2023-03-28T00:29:26.256Z,98.64
2023-03-28T00:31:54.628Z,98.89
2023-03-28T00:34:23.101Z,98.99
2023-03-28T00:36:54.110Z,98.93
2023-03-28T00:39:22.660Z,98.97
2023-03-28T00:41:51.539Z,98.91
2023-03-28T00:44:41.771Z,98.74
2023-03-28T00:47:26.140Z,98.80
2023-03-28T00:50:05.603Z,98.84
2023-03-28T00:52:40.404Z,99.04
2023-03-28T00:55:17.419Z,99.48
2023-03-28T00:57:48.274Z,99.57
2023-03-28T01:00:19.191Z,99.67
2023-03-28T01:02:53.553Z,99.65
2023-03-28T01:05:28.833Z,99.76
2023-03-28T01:08:06.634Z,99.82
2023-03-28T01:10:34.960Z,99.94
2023-03-28T01:13:04.749Z,99.99
2023-03-28T01:15:33.876Z,100.00
2023-03-28T01:18:04.099Z,99.79
2023-03-28T01:21:02.395Z,99.72
2023-03-28T01:23:52.403Z,99.79
2023-03-28T01:26:48.271Z,99.44
2023-03-28T01:30:09.590Z,99.78
2023-03-28T01:33:13.197Z,99.85
2023-03-28T01:36:34.616Z,99.29
2023-03-28T01:39:15.706Z,98.68
2023-03-28T01:42:23.009Z,98.61
2023-03-28T01:45:19.512Z,98.27
2023-03-28T01:48:05.794Z,97.93
2023-03-28T01:50:48.415Z,97.88
2023-03-28T01:53:32.872Z,97.25
2023-03-28T01:56:13.739Z,97.28
2023-03-28T01:58:49.054Z,96.82
2023-03-28T02:01:37.025Z,96.94
2023-03-28T02:04:20.608Z,96.64
2023-03-28T02:07:02.284Z,96.75
2023-03-28T02:09:38.124Z,96.38
2023-03-28T02:12:40.873Z,96.08
2023-03-28T02:15:15.141Z,96.04
2023-03-28T02:18:18.169Z,95.62
2023-03-28T02:21:02.420Z,95.61
2023-03-28T02:23:47.490Z,95.40
2023-03-28T02:26:40.608Z,95.24
2023-03-28T02:29:30.849Z,95.09
2023-03-28T02:32:22.099Z,95.31
2023-03-28T02:34:53.752Z,95.12
2023-03-28T02:37:54.394Z,95.13
2023-03-28T02:40:25.939Z,95.62
2023-03-28T02:43:16.159Z,95.26
2023-03-28T02:46:19.428Z,95.02
2023-03-28T02:48:47.850Z,94.97
2023-03-28T02:51:50.100Z,94.60
2023-03-28T02:54:36.401Z,94.26
2023-03-28T02:57:36.684Z,94.25
2023-03-28T03:00:12.606Z,94.17
2023-03-28T03:02:44.334Z,94.01
2023-03-28T03:05:14.050Z,94.02
2023-03-28T03:07:42.774Z,94.14
2023-03-28T03:10:12.267Z,93.90
2023-03-28T03:12:41.393Z,93.50
2023-03-28T03:15:11.942Z,93.48
2023-03-28T03:18:00.722Z,93.34
2023-03-28T03:20:34.853Z,93.41
2023-03-28T03:23:04.443Z,93.34
2023-03-28T03:25:34.744Z,92.96
2023-03-28T03:28:17.566Z,92.72
2023-03-28T03:30:46.778Z,92.74
2023-03-28T03:33:24.696Z,91.87
2023-03-28T03:36:01.232Z,91.73
2023-03-28T03:38:30.017Z,91.76
2023-03-28T03:40:58.546Z,90.83
2023-03-28T03:43:27.951Z,90.82
2023-03-28T03:45:56.663Z,90.13
2023-03-28T03:48:25.389Z,89.77
2023-03-28T03:50:59.376Z,89.52
2023-03-28T03:53:27.986Z,89.48
2023-03-28T03:56:05.516Z,88.77
2023-03-28T03:59:09.538Z,88.49
2023-03-28T04:01:44.245Z,88.77
2023-03-28T04:04:37.119Z,88.22
2023-03-28T04:07:24.987Z,87.91
2023-03-28T04:09:55.096Z,87.69
2023-03-28T04:12:26.492Z,87.66
2023-03-28T04:14:56.796Z,87.64
2023-03-28T04:17:45.366Z,87.20
2023-03-28T04:20:17.645Z,87.29
2023-03-28T04:23:06.116Z,86.71
2023-03-28T04:25:34.891Z,86.73
2023-03-28T04:28:06.508Z,86.82
2023-03-28T04:30:38.460Z,86.37
2023-03-28T04:33:27.206Z,86.18
2023-03-28T04:36:00.454Z,85.62
2023-03-28T04:38:36.449Z,86.06
2023-03-28T04:41:28.569Z,85.61
2023-03-28T04:44:15.832Z,85.27
2023-03-28T04:46:49.111Z,85.76
2023-03-28T04:49:18.376Z,85.42
2023-03-28T04:51:47.394Z,85.26
2023-03-28T04:54:15.961Z,85.09
2023-03-28T04:56:50.609Z,85.60
2023-03-28T04:59:24.877Z,86.56
2023-03-28T05:01:54.046Z,86.88
2023-03-28T05:04:41.098Z,87.20
2023-03-28T05:07:10.835Z,87.97
2023-03-28T05:09:39.546Z,88.02
2023-03-28T05:12:08.374Z,88.31
2023-03-28T05:14:52.137Z,89.45
2023-03-28T05:17:20.772Z,89.92
2023-03-28T05:20:01.678Z,89.65
2023-03-28T05:22:37.266Z,89.74
2023-03-28T05:25:08.632Z,89.67
2023-03-28T05:27:38.942Z,89.69
2023-03-28T05:30:09.856Z,89.09
2023-03-28T05:32:38.964Z,89.49
2023-03-28T05:35:13.314Z,88.80
2023-03-28T05:37:44.130Z,88.89
2023-03-28T05:40:15.731Z,88.35
2023-03-28T05:42:44.850Z,88.95
2023-03-28T05:45:17.584Z,88.83
2023-03-28T05:48:03.706Z,89.04
2023-03-28T05:50:32.589Z,89.47
2023-03-28T05:53:07.005Z,89.89
2023-03-28T05:55:35.982Z,90.02
2023-03-28T05:58:06.467Z,89.93
2023-03-28T06:00:40.704Z,90.14
2023-03-28T06:03:09.748Z,90.22
2023-03-28T06:05:46.123Z,90.04
2023-03-28T06:08:22.405Z,89.96
2023-03-28T06:10:51.276Z,90.27
2023-03-28T06:13:27.118Z,90.57
2023-03-28T06:15:55.654Z,90.15
2023-03-28T06:18:31.221Z,90.32
2023-03-28T06:20:59.960Z,89.54
2023-03-28T06:23:28.684Z,89.35
2023-03-28T06:25:57.746Z,89.12
2023-03-28T06:28:26.813Z,88.62
2023-03-28T06:31:07.577Z,88.39
2023-03-28T06:33:36.046Z,88.58
2023-03-28T06:36:06.173Z,89.57
2023-03-28T06:38:35.381Z,88.21
2023-03-28T06:41:04.188Z,86.88
2023-03-28T06:43:32.833Z,86.61
2023-03-28T06:46:16.323Z,87.09
2023-03-28T06:48:45.713Z,87.51
2023-03-28T06:51:29.409Z,87.14
2023-03-28T06:53:58.026Z,87.12
2023-03-28T06:56:29.463Z,87.49
2023-03-28T06:58:58.815Z,87.16
2023-03-28T07:01:29.629Z,87.39
2023-03-28T07:04:06.479Z,87.04
2023-03-28T07:06:36.009Z,87.04
2023-03-28T07:09:06.332Z,87.20
2023-03-28T07:11:42.233Z,87.93
2023-03-28T07:14:11.082Z,87.82
2023-03-28T07:16:39.480Z,87.95
2023-03-28T07:19:08.111Z,87.56
2023-03-28T07:21:37.956Z,87.19
2023-03-28T07:24:06.932Z,86.87
2023-03-28T07:27:14.091Z,87.07
2023-03-28T07:29:42.934Z,87.43
2023-03-28T07:32:12.038Z,87.55
2023-03-28T07:34:41.056Z,87.37
2023-03-28T07:37:10.740Z,87.54
2023-03-28T07:40:02.246Z,88.00
2023-03-28T07:42:31.061Z,88.27
2023-03-28T07:44:59.533Z,88.13
2023-03-28T07:47:30.734Z,88.02
2023-03-28T07:49:59.101Z,88.16
2023-03-28T07:52:28.866Z,88.13
2023-03-28T07:54:57.400Z,88.64
2023-03-28T07:57:26.116Z,89.13
2023-03-28T08:00:13.469Z,90.15
2023-03-28T08:02:44.601Z,90.80
2023-03-28T08:05:13.911Z,91.85
2023-03-28T08:07:46.042Z,93.06
2023-03-28T08:10:14.936Z,93.52
2023-03-28T08:12:43.430Z,92.83
2023-03-28T08:15:12.257Z,93.23
2023-03-28T08:17:40.815Z,93.11
2023-03-28T08:20:11.060Z,93.06
2023-03-28T08:22:39.518Z,93.54
2023-03-28T08:25:20.906Z,93.80
2023-03-28T08:27:49.615Z,93.79
2023-03-28T08:30:18.146Z,93.59
2023-03-28T08:32:53.248Z,93.51
2023-03-28T08:35:21.760Z,93.48
2023-03-28T08:37:52.370Z,93.54
2023-03-28T08:40:21.224Z,93.29
2023-03-28T08:43:11.668Z,93.32
2023-03-28T08:45:51.287Z,92.64
2023-03-28T08:48:34.698Z,92.35
2023-03-28T08:51:28.906Z,92.72
2023-03-28T08:54:18.857Z,91.83
2023-03-28T08:56:53.729Z,91.16
2023-03-28T08:59:43.708Z,90.53
2023-03-28T09:02:21.901Z,90.34
2023-03-28T09:04:51.871Z,90.51
2023-03-28T09:07:37.284Z,90.66
2023-03-28T09:10:22.299Z,90.74
2023-03-28T09:13:34.007Z,90.35
2023-03-28T09:16:23.860Z,90.31
2023-03-28T09:19:44.768Z,90.47
2023-03-28T09:23:02.659Z,90.44
2023-03-28T09:25:49.136Z,90.96
2023-03-28T09:28:41.026Z,90.75
2023-03-28T09:31:13.200Z,90.47
2023-03-28T09:33:45.889Z,89.02
2023-03-28T09:36:31.505Z,88.67
2023-03-28T09:39:17.492Z,87.85
2023-03-28T09:41:55.344Z,86.72
2023-03-28T09:44:57.829Z,87.50
2023-03-28T09:47:50.242Z,87.31
2023-03-28T09:50:21.984Z,85.65
2023-03-28T09:52:57.807Z,86.20
2023-03-28T09:55:31.295Z,86.71
2023-03-28T09:58:09.209Z,86.89
2023-03-28T10:01:36.649Z,86.83
2023-03-28T10:04:28.559Z,87.12
2023-03-28T10:07:11.398Z,87.26
2023-03-28T10:10:03.657Z,87.01
2023-03-28T10:12:39.949Z,87.48
2023-03-28T10:15:33.414Z,87.15
2023-03-28T10:18:25.210Z,86.68
2023-03-28T10:21:24.221Z,86.52
2023-03-28T10:24:17.733Z,86.73
2023-03-28T10:26:52.394Z,86.59
2023-03-28T10:29:21.889Z,87.16
2023-03-28T10:31:51.058Z,87.60
2023-03-28T10:34:38.084Z,86.76
2023-03-28T10:37:32.789Z,85.68
2023-03-28T10:40:20.522Z,86.24
2023-03-28T10:43:14.659Z,86.93
2023-03-28T10:45:51.339Z,87.57
2023-03-28T10:48:36.557Z,88.54
2023-03-28T10:51:17.186Z,86.67
2023-03-28T10:53:51.545Z,86.43
2023-03-28T10:56:33.690Z,86.82
2023-03-28T10:59:27.707Z,86.84
2023-03-28T11:01:59.946Z,85.57
2023-03-28T11:04:52.908Z,85.51
2023-03-28T11:07:36.997Z,83.30
2023-03-28T11:11:02.351Z,83.66
2023-03-28T11:13:39.445Z,82.70
2023-03-28T11:16:34.210Z,84.09
2023-03-28T11:19:57.604Z,83.19
2023-03-28T11:22:42.177Z,84.38
2023-03-28T11:25:22.793Z,84.26
2023-03-28T11:28:21.999Z,83.36
2023-03-28T11:30:58.907Z,81.93
2023-03-28T11:33:44.418Z,79.67
2023-03-28T11:36:29.546Z,79.35
2023-03-28T11:39:10.688Z,79.85
2023-03-28T11:41:41.719Z,80.07
2023-03-28T11:44:29.873Z,80.58
2023-03-28T11:47:13.264Z,80.30
2023-03-28T11:49:54.634Z,79.46
2023-03-28T11:53:13.831Z,77.29
2023-03-28T11:55:58.664Z,77.25
2023-03-28T11:58:52.629Z,76.77
2023-03-28T12:01:27.432Z,76.62
2023-03-28T12:04:02.379Z,75.40
2023-03-28T12:07:03.918Z,75.87
2023-03-28T12:09:56.590Z,76.25
2023-03-28T12:12:30.080Z,72.38
2023-03-28T12:15:16.785Z,74.79
2023-03-28T12:18:17.688Z,75.33
2023-03-28T12:21:00.855Z,74.40
2023-03-28T12:23:53.642Z,74.30
2023-03-28T12:26:57.147Z,72.74
2023-03-28T12:29:34.481Z,73.42
2023-03-28T12:32:25.771Z,71.79
2023-03-28T12:35:02.771Z,70.53
2023-03-28T12:37:58.832Z,68.23
2023-03-28T12:40:58.572Z,68.35
2023-03-28T12:43:49.785Z,69.98
2023-03-28T12:46:47.856Z,70.68
2023-03-28T12:49:19.975Z,71.41
2023-03-28T12:51:53.525Z,74.18
2023-03-28T12:54:26.244Z,72.95
2023-03-28T12:57:37.518Z,70.42
2023-03-28T13:00:16.709Z,70.51
2023-03-28T13:03:28.252Z,70.94
2023-03-28T13:06:15.309Z,72.28
2023-03-28T13:09:00.344Z,71.98
2023-03-28T13:12:00.120Z,71.66
2023-03-28T13:14:40.021Z,71.28
2023-03-28T13:17:27.284Z,72.76
2023-03-28T13:20:07.934Z,73.52
2023-03-28T13:22:57.823Z,74.32
2023-03-28T13:25:36.101Z,74.77
2023-03-28T13:28:13.697Z,75.83
2023-03-28T13:31:06.138Z,76.07
2023-03-28T13:33:42.847Z,76.36
2023-03-28T13:36:18.209Z,75.07
2023-03-28T13:39:20.386Z,76.38
2023-03-28T13:41:48.700Z,76.34
2023-03-28T13:44:24.868Z,76.50
2023-03-28T13:46:54.304Z,76.35
2023-03-28T13:49:28.742Z,76.02
2023-03-28T13:52:05.007Z,76.37
2023-03-28T13:54:33.986Z,76.85
2023-03-28T13:57:06.685Z,77.63
2023-03-28T13:59:40.731Z,77.33
2023-03-28T14:02:32.073Z,77.03
2023-03-28T14:05:11.320Z,76.32
2023-03-28T14:07:40.379Z,76.62
2023-03-28T14:10:32.040Z,77.22
2023-03-28T14:13:25.650Z,73.53
2023-03-28T14:15:56.332Z,73.55
2023-03-28T14:18:46.940Z,73.14
2023-03-28T14:21:15.957Z,73.82
2023-03-28T14:23:56.887Z,74.21
2023-03-28T14:26:29.749Z,73.43
2023-03-28T14:29:05.322Z,72.79
2023-03-28T14:31:40.685Z,72.50
2023-03-28T14:34:21.540Z,72.30
2023-03-28T14:37:01.740Z,72.01
2023-03-28T14:39:32.387Z,71.81
2023-03-28T14:42:06.985Z,71.56
2023-03-28T14:44:40.491Z,71.40
2023-03-28T14:47:15.961Z,71.15
2023-03-28T14:49:45.943Z,71.43
2023-03-28T14:52:17.896Z,70.90
2023-03-28T14:54:48.263Z,70.74
2023-03-28T14:57:18.531Z,70.84
2023-03-28T14:59:50.193Z,71.02
2023-03-28T15:02:46.406Z,70.36
2023-03-28T15:05:17.693Z,70.24
2023-03-28T15:07:54.761Z,70.70
2023-03-28T15:10:25.703Z,69.79
2023-03-28T15:13:18.349Z,68.98
2023-03-28T15:15:48.600Z,69.81
2023-03-28T15:18:25.394Z,69.01
2023-03-28T15:20:57.263Z,66.86
2023-03-28T15:23:32.655Z,65.37
2023-03-28T15:26:04.640Z,64.61
2023-03-28T15:28:33.581Z,65.65
2023-03-28T15:31:03.998Z,65.85
2023-03-28T15:33:34.512Z,66.51
2023-03-28T15:36:19.526Z,66.66
2023-03-28T15:39:10.456Z,65.70
2023-03-28T15:41:47.466Z,66.04
2023-03-28T15:44:31.816Z,66.05
2023-03-28T15:47:05.256Z,66.09
2023-03-28T15:49:38.163Z,66.52
2023-03-28T15:52:16.817Z,66.20
2023-03-28T15:54:52.229Z,65.84
2023-03-28T15:57:23.901Z,66.02
2023-03-28T15:59:52.435Z,65.73
2023-03-28T16:02:23.821Z,65.19
2023-03-28T16:05:15.245Z,64.08
2023-03-28T16:07:50.008Z,64.59
2023-03-28T16:10:21.358Z,65.34
2023-03-28T16:13:29.605Z,64.50
2023-03-28T16:16:26.283Z,64.01
2023-03-28T16:19:19.634Z,63.84
2023-03-28T16:21:48.505Z,63.58
2023-03-28T16:24:16.976Z,63.46
2023-03-28T16:26:46.320Z,63.28
2023-03-28T16:29:14.826Z,63.40
2023-03-28T16:31:43.470Z,63.68
2023-03-28T16:34:11.961Z,63.97
2023-03-28T16:36:40.318Z,64.33
2023-03-28T16:39:10.213Z,64.50
2023-03-28T16:41:38.720Z,64.79
2023-03-28T16:44:07.202Z,64.88
2023-03-28T16:46:35.687Z,65.26
2023-03-28T16:49:04.405Z,65.51
2023-03-28T16:51:32.853Z,66.43
2023-03-28T16:54:49.967Z,67.54
2023-03-28T16:57:18.444Z,68.52
2023-03-28T16:59:47.041Z,68.73
2023-03-28T17:02:15.738Z,69.55
2023-03-28T17:04:50.711Z,70.34
2023-03-28T17:07:19.290Z,71.47
2023-03-28T17:09:48.535Z,72.76
2023-03-28T17:12:18.620Z,72.70
2023-03-28T17:14:47.744Z,71.71
2023-03-28T17:17:16.419Z,71.15
2023-03-28T17:19:44.921Z,69.94
2023-03-28T17:22:13.464Z,69.41
2023-03-28T17:24:42.432Z,69.42
2023-03-28T17:27:11.148Z,69.36
2023-03-28T17:29:39.619Z,69.07
2023-03-28T17:32:08.447Z,67.30
2023-03-28T17:34:37.348Z,66.64
2023-03-28T17:37:06.056Z,66.96
2023-03-28T17:39:34.567Z,67.16
2023-03-28T17:42:03.214Z,67.48
2023-03-28T17:44:34.850Z,66.49
2023-03-28T17:47:03.613Z,64.66
2023-03-28T17:49:32.267Z,62.38
2023-03-28T17:52:44.903Z,62.06
2023-03-28T17:55:13.616Z,60.53
2023-03-28T17:57:42.387Z,61.27
2023-03-28T18:00:11.298Z,62.28
2023-03-28T18:02:46.624Z,62.81
2023-03-28T18:05:30.008Z,61.95
2023-03-28T18:12:51.171Z,61.62
2023-03-28T18:15:19.911Z,64.86
2023-03-28T18:17:48.373Z,65.14
2023-03-28T18:20:17.502Z,65.18
2023-03-28T18:22:46.569Z,65.34
2023-03-28T18:26:17.918Z,64.22
2023-03-28T18:28:46.745Z,61.00
2023-03-28T18:31:17.878Z,60.79
2023-03-28T18:33:46.695Z,59.97
2023-03-28T18:36:20.145Z,58.74
2023-03-28T18:38:49.180Z,59.34
2023-03-28T18:41:17.863Z,56.79
2023-03-28T18:43:46.513Z,56.22
2023-03-28T18:46:16.154Z,57.78
2023-03-28T18:49:09.146Z,58.48
2023-03-28T18:51:38.806Z,57.30
2023-03-28T18:54:07.475Z,56.92
2023-03-28T18:56:39.787Z,59.29
2023-03-28T18:59:08.888Z,60.54
2023-03-28T19:01:42.288Z,63.19
2023-03-28T19:04:12.585Z,65.91
2023-03-28T19:06:41.236Z,69.20
2023-03-28T19:09:09.603Z,72.07
2023-03-28T19:11:38.232Z,72.11
2023-03-28T19:14:09.781Z,72.30
2023-03-28T19:16:38.374Z,71.28
2023-03-28T19:19:06.984Z,71.27
2023-03-28T19:21:35.428Z,71.41
2023-03-28T19:24:03.966Z,71.95
2023-03-28T19:26:32.699Z,71.75
2023-03-28T19:30:01.040Z,72.01
2023-03-28T19:32:30.818Z,73.16
2023-03-28T19:34:59.281Z,73.81
2023-03-28T19:37:27.626Z,73.77
2023-03-28T19:39:59.309Z,74.15
2023-03-28T19:42:27.747Z,74.54
2023-03-28T19:44:56.141Z,74.78
2023-03-28T19:47:24.911Z,75.11
2023-03-28T19:49:53.459Z,75.97
2023-03-28T19:52:21.701Z,75.66
2023-03-28T19:54:50.920Z,75.98
2023-03-28T19:57:19.497Z,76.75
2023-03-28T19:59:47.863Z,76.97
2023-03-28T20:02:16.343Z,76.92
2023-03-28T20:04:44.773Z,77.44
2023-03-28T20:07:13.197Z,77.53
2023-03-28T20:09:46.116Z,77.98
2023-03-28T20:12:18.977Z,78.28
2023-03-28T20:14:47.744Z,78.29
2023-03-28T20:17:16.296Z,78.67
2023-03-28T20:19:44.802Z,79.00
2023-03-28T20:22:13.350Z,79.10
2023-03-28T20:24:42.226Z,79.49
2023-03-28T20:27:12.611Z,79.56
2023-03-28T20:29:42.594Z,79.88
2023-03-28T20:32:11.531Z,80.18
2023-03-28T20:34:40.004Z,80.48
2023-03-28T20:37:08.649Z,80.35
2023-03-28T20:39:37.123Z,81.00
2023-03-28T20:42:05.842Z,81.27
2023-03-28T20:44:38.491Z,81.81
2023-03-28T20:47:08.838Z,81.76
2023-03-28T20:49:38.573Z,81.07
2023-03-28T20:52:08.096Z,81.01
2023-03-28T20:54:36.528Z,80.91
2023-03-28T20:57:05.134Z,80.97
2023-03-28T20:59:34.907Z,80.68
2023-03-28T21:02:05.379Z,80.96
2023-03-28T21:04:33.966Z,81.63
2023-03-28T21:07:03.457Z,82.13
2023-03-28T21:09:31.881Z,82.50
2023-03-28T21:12:00.441Z,83.77
2023-03-28T21:14:29.126Z,85.00
2023-03-28T21:16:58.072Z,85.41
2023-03-28T21:19:26.642Z,85.63
2023-03-28T21:21:56.636Z,85.84
2023-03-28T21:24:25.076Z,86.42
2023-03-28T21:26:53.492Z,86.98
2023-03-28T21:29:22.114Z,87.56
2023-03-28T21:31:50.467Z,88.17
2023-03-28T21:34:19.028Z,88.72
2023-03-28T21:36:48.771Z,89.14
2023-03-28T21:39:18.897Z,89.54
2023-03-28T21:41:47.230Z,89.96
2023-03-28T21:44:15.764Z,90.60
2023-03-28T21:46:44.201Z,91.33
2023-03-28T21:49:12.687Z,91.71
2023-03-28T21:51:42.013Z,92.03
2023-03-28T21:54:10.583Z,92.73
2023-03-28T21:56:39.025Z,92.76
2023-03-28T21:59:07.488Z,93.07
2023-03-28T22:01:36.527Z,92.98
2023-03-28T22:04:05.342Z,93.25
2023-03-28T22:06:33.748Z,93.50
2023-03-28T22:09:02.939Z,93.92
2023-03-28T22:11:32.903Z,94.05
2023-03-28T22:14:02.487Z,93.73
2023-03-28T22:16:38.898Z,93.70
2023-03-28T22:19:11.557Z,94.20
2023-03-28T22:21:39.833Z,94.85
2023-03-28T22:24:13.386Z,94.85
2023-03-28T22:26:42.759Z,95.19
2023-03-28T22:29:11.957Z,95.15
2023-03-28T22:31:40.872Z,94.74
2023-03-28T22:34:09.950Z,94.49
2023-03-28T22:36:38.287Z,94.31
2023-03-28T22:39:07.970Z,94.33
2023-03-28T22:41:36.537Z,94.22
2023-03-28T22:44:05.102Z,93.99
2023-03-28T22:46:34.236Z,94.29
2023-03-28T22:49:04.669Z,94.95
2023-03-28T22:51:33.435Z,95.36
2023-03-28T22:54:03.418Z,95.35
2023-03-28T22:56:31.841Z,95.48
2023-03-28T22:59:01.608Z,95.54
2023-03-28T23:01:30.372Z,95.68
2023-03-28T23:03:58.861Z,95.49
2023-03-28T23:06:28.181Z,95.94
2023-03-28T23:08:56.797Z,96.05
2023-03-28T23:11:25.220Z,96.58
2023-03-28T23:13:53.886Z,96.58
2023-03-28T23:16:22.447Z,96.80
2023-03-28T23:18:50.944Z,96.82
2023-03-28T23:21:20.229Z,96.92
2023-03-28T23:23:48.765Z,96.81
2023-03-28T23:26:17.966Z,96.76
2023-03-28T23:28:46.531Z,96.63
2023-03-28T23:31:15.038Z,96.84
2023-03-28T23:33:46.409Z,96.85
2023-03-28T23:36:20.583Z,96.94
2023-03-28T23:38:49.201Z,97.02
2023-03-28T23:41:17.764Z,96.96
2023-03-28T23:43:46.407Z,97.17
2023-03-28T23:46:14.990Z,97.05
2023-03-28T23:48:43.413Z,97.07
2023-03-28T23:51:11.973Z,96.88
2023-03-28T23:53:40.456Z,96.91
2023-03-28T23:56:09.945Z,97.39
2023-03-28T23:58:38.619Z,97.83
